createdAt,value
2023-04-18T00:02:38.545Z,10.07
2023-04-18T00:06:00.877Z,10.40
2023-04-18T00:09:22.569Z,10.50
2023-04-18T00:12:44.529Z,10.77
2023-04-18T00:16:08.055Z,10.60
2023-04-18T00:19:31.479Z,10.47
2023-04-18T00:22:55.070Z,11.23
2023-04-18T00:26:17.826Z,10.30
2023-04-18T00:29:42.558Z,10.13
2023-04-18T00:33:04.481Z,10.20
2023-04-18T00:36:28.180Z,10.27
2023-04-18T00:39:49.691Z,10.17
2023-04-18T00:43:10.945Z,10.90
2023-04-18T00:46:35.448Z,10.20
2023-04-18T00:49:57.111Z,10.67
2023-04-18T00:53:21.152Z,10.10
2023-04-18T00:56:43.085Z,10.33
2023-04-18T01:00:09.334Z,10.73
2023-04-18T01:03:33.044Z,9.67
2023-04-18T01:06:55.202Z,11.00
2023-04-18T01:10:18.862Z,10.57
2023-04-18T01:13:40.314Z,10.63
2023-04-18T01:17:02.186Z,10.30
2023-04-18T01:20:26.133Z,10.73
2023-04-18T01:23:48.851Z,9.90
2023-04-18T01:27:14.443Z,10.43
2023-04-18T01:30:35.910Z,9.83
2023-04-18T01:33:57.708Z,10.73
2023-04-18T01:37:19.532Z,10.00
2023-04-18T01:40:41.010Z,10.37
2023-04-18T01:44:03.657Z,10.37
2023-04-18T01:47:25.275Z,10.53
2023-04-18T01:50:47.047Z,10.10
2023-04-18T01:54:08.485Z,10.33
2023-04-18T01:57:30.482Z,10.20
2023-04-18T02:00:54.741Z,9.97
2023-04-18T02:04:16.685Z,10.30
2023-04-18T02:07:42.745Z,9.97
2023-04-18T02:11:04.730Z,10.70
2023-04-18T02:14:27.778Z,9.83
2023-04-18T02:17:51.487Z,9.87
2023-04-18T02:21:13.425Z,9.73
2023-04-18T02:24:35.721Z,9.80
2023-04-18T02:27:58.173Z,9.60
2023-04-18T02:31:19.649Z,9.80
2023-04-18T02:34:42.373Z,9.63
2023-04-18T02:38:04.097Z,9.73
2023-04-18T02:41:25.919Z,9.47
2023-04-18T02:44:48.712Z,10.03
2023-04-18T02:48:10.999Z,9.63
2023-04-18T02:51:34.547Z,9.83
2023-04-18T02:54:56.917Z,10.27
2023-04-18T02:58:22.781Z,9.77
2023-04-18T03:02:05.392Z,10.70
2023-04-18T03:05:28.793Z,10.70
2023-04-18T03:08:55.761Z,11.87
2023-04-18T03:12:18.621Z,10.67
2023-04-18T03:15:41.300Z,12.23
2023-04-18T03:19:05.318Z,10.87
2023-04-18T03:22:28.805Z,11.43
2023-04-18T03:25:53.611Z,10.67
2023-04-18T03:29:16.184Z,11.00
2023-04-18T03:32:42.220Z,10.43
2023-04-18T03:36:04.448Z,11.33
2023-04-18T03:39:26.033Z,11.77
2023-04-18T03:42:50.508Z,11.27
2023-04-18T03:46:12.059Z,12.10
2023-04-18T03:49:33.923Z,12.37
2023-04-18T03:52:57.851Z,12.00
2023-04-18T03:56:19.799Z,12.20
2023-04-18T03:59:51.104Z,12.73
2023-04-18T04:03:13.716Z,12.50
2023-04-18T04:06:36.454Z,12.80
2023-04-18T04:09:58.610Z,13.17
2023-04-18T04:13:20.557Z,13.57
2023-04-18T04:16:45.207Z,13.30
2023-04-18T04:20:10.964Z,12.17
2023-04-18T04:23:33.176Z,12.37
2023-04-18T04:26:56.345Z,12.70
2023-04-18T04:30:19.751Z,13.23
2023-04-18T04:33:43.675Z,13.47
2023-04-18T04:37:13.983Z,13.03
2023-04-18T04:40:47.519Z,13.03
2023-04-18T04:44:09.626Z,12.77
2023-04-18T04:47:31.966Z,13.77
2023-04-18T04:50:56.692Z,13.13
2023-04-18T04:54:18.109Z,13.53
2023-04-18T04:57:40.394Z,12.90
2023-04-18T05:01:18.015Z,12.80
2023-04-18T05:04:40.201Z,13.07
2023-04-18T05:08:03.711Z,12.77
2023-04-18T05:11:25.945Z,12.47
2023-04-18T05:14:47.287Z,13.50
2023-04-18T05:18:09.026Z,13.53
2023-04-18T05:21:31.367Z,13.77
2023-04-18T05:24:54.415Z,12.77
2023-04-18T05:28:16.919Z,12.97
2023-04-18T05:31:38.621Z,12.27
2023-04-18T05:35:00.399Z,12.27
2023-04-18T05:38:22.043Z,12.13
2023-04-18T05:41:45.261Z,12.70
2023-04-18T05:45:07.954Z,12.23
2023-04-18T05:48:29.644Z,11.27
2023-04-18T05:51:52.883Z,12.27
2023-04-18T05:55:14.305Z,11.67
2023-04-18T05:58:37.415Z,11.57
2023-04-18T06:01:59.114Z,11.23
2023-04-18T06:05:20.581Z,11.23
2023-04-18T06:08:42.865Z,11.27
2023-04-18T06:12:05.208Z,10.83
2023-04-18T06:15:29.077Z,10.93
2023-04-18T06:18:50.707Z,10.80
2023-04-18T06:22:12.414Z,10.13
2023-04-18T06:25:34.316Z,9.93
2023-04-18T06:28:56.211Z,10.83
2023-04-18T06:32:19.057Z,9.77
2023-04-18T06:35:41.259Z,10.80
2023-04-18T06:39:03.002Z,9.63
2023-04-18T06:42:24.340Z,9.47
2023-04-18T06:45:46.550Z,10.17
2023-04-18T06:49:09.868Z,9.67
2023-04-18T06:52:31.495Z,9.70
2023-04-18T06:55:53.375Z,9.37
2023-04-18T06:59:15.110Z,9.87
2023-04-18T07:02:38.675Z,9.50
2023-04-18T07:06:02.862Z,10.23
2023-04-18T07:09:24.578Z,9.80
2023-04-18T07:12:47.854Z,9.50
2023-04-18T07:16:10.942Z,10.43
2023-04-18T07:19:33.121Z,9.40
2023-04-18T07:22:55.729Z,9.57
2023-04-18T07:26:17.638Z,10.20
2023-04-18T07:29:39.327Z,10.37
2023-04-18T07:33:01.284Z,9.63
2023-04-18T07:36:22.832Z,10.30
2023-04-18T07:39:45.595Z,10.60
2023-04-18T07:43:07.178Z,10.07
2023-04-18T07:46:28.970Z,9.97
2023-04-18T07:49:51.636Z,10.00
2023-04-18T07:53:13.873Z,9.47
2023-04-18T07:56:36.938Z,10.07
2023-04-18T07:59:58.331Z,9.33
2023-04-18T08:03:20.271Z,9.50
2023-04-18T08:06:42.649Z,9.97
2023-04-18T08:10:04.931Z,10.60
2023-04-18T08:13:28.023Z,10.60
2023-04-18T08:16:49.450Z,10.33
2023-04-18T08:20:12.919Z,9.23
2023-04-18T08:23:59.953Z,9.97
2023-04-18T08:27:21.610Z,10.50
2023-04-18T08:30:48.645Z,9.80
2023-04-18T08:34:10.372Z,10.50
2023-04-18T08:37:35.187Z,9.67
2023-04-18T08:40:57.087Z,9.87
2023-04-18T08:44:19.330Z,9.80
2023-04-18T08:47:42.798Z,9.60
2023-04-18T08:51:05.547Z,10.30
2023-04-18T08:54:30.546Z,10.13
2023-04-18T08:57:54.167Z,9.63
2023-04-18T09:01:17.897Z,10.20
2023-04-18T09:04:43.263Z,10.60
2023-04-18T09:08:24.612Z,10.50
2023-04-18T09:11:46.611Z,10.37
2023-04-18T09:15:14.137Z,10.60
2023-04-18T09:18:35.654Z,10.70
2023-04-18T09:22:04.578Z,10.77
2023-04-18T09:25:29.278Z,9.60
2023-04-18T09:28:54.521Z,10.10
2023-04-18T09:32:25.097Z,10.70
2023-04-18T09:35:47.105Z,10.15
2023-04-18T09:39:10.479Z,10.93
2023-04-18T09:42:37.415Z,10.63
2023-04-18T09:46:01.119Z,10.30
2023-04-18T09:49:23.801Z,10.88
2023-04-18T09:52:46.889Z,11.05
2023-04-18T09:56:14.205Z,11.00
2023-04-18T09:59:42.675Z,11.27
2023-04-18T10:03:08.213Z,10.82
2023-04-18T10:06:30.109Z,10.93
2023-04-18T10:09:53.044Z,11.60
2023-04-18T10:13:16.341Z,11.60
2023-04-18T10:16:39.017Z,11.23
2023-04-18T10:20:10.146Z,12.43
2023-04-18T10:23:36.850Z,12.93
2023-04-18T10:26:59.513Z,13.00
2023-04-18T10:30:54.338Z,12.45
2023-04-18T10:34:19.677Z,12.38
2023-04-18T10:37:51.102Z,12.93
2023-04-18T10:41:18.399Z,11.95
2023-04-18T10:44:40.497Z,13.20
2023-04-18T10:48:27.724Z,11.52
2023-04-18T10:51:51.165Z,12.07
2023-04-18T10:55:16.965Z,12.20
2023-04-18T10:58:42.179Z,12.48
2023-04-18T11:02:12.063Z,13.32
2023-04-18T11:05:35.968Z,13.07
2023-04-18T11:09:11.070Z,12.00
2023-04-18T11:12:33.644Z,12.32
2023-04-18T11:15:56.887Z,12.45
2023-04-18T11:19:23.263Z,13.38
2023-04-18T11:22:50.727Z,13.32
2023-04-18T11:26:14.420Z,12.82
2023-04-18T11:29:36.173Z,13.30
2023-04-18T11:32:57.743Z,12.57
2023-04-18T11:36:19.883Z,12.48
2023-04-18T11:39:44.602Z,12.75
2023-04-18T11:43:08.070Z,12.23
2023-04-18T11:46:39.072Z,13.00
2023-04-18T11:50:02.782Z,12.32
2023-04-18T11:53:34.818Z,12.55
2023-04-18T11:56:57.947Z,11.82
2023-04-18T12:00:22.169Z,11.13
2023-04-18T12:03:45.476Z,10.82
2023-04-18T12:07:07.681Z,10.55
2023-04-18T12:10:30.612Z,9.45
2023-04-18T12:13:57.936Z,11.23
2023-04-18T12:17:19.461Z,10.02
2023-04-18T12:20:46.691Z,10.40
2023-04-18T12:24:16.012Z,10.05
2023-04-18T12:27:52.240Z,9.80
2023-04-18T12:31:15.692Z,10.38
2023-04-18T12:34:37.300Z,9.80
2023-04-18T12:38:00.835Z,9.50
2023-04-18T12:41:22.392Z,10.48
2023-04-18T12:44:45.828Z,9.55
2023-04-18T12:48:09.937Z,9.65
2023-04-18T12:51:32.135Z,9.77
2023-04-18T12:54:56.267Z,9.73
2023-04-18T12:58:20.510Z,9.70
2023-04-18T13:01:42.021Z,9.50
2023-04-18T13:05:05.264Z,9.40
2023-04-18T13:08:26.828Z,9.63
2023-04-18T13:11:49.644Z,9.32
2023-04-18T13:15:12.730Z,9.40
2023-04-18T13:18:34.637Z,10.25
2023-04-18T13:21:58.454Z,9.55
2023-04-18T13:25:19.994Z,9.45
2023-04-18T13:28:42.197Z,9.40
2023-04-18T13:32:03.896Z,9.68
2023-04-18T13:35:25.919Z,9.10
2023-04-18T13:38:49.027Z,9.25
2023-04-18T13:42:11.018Z,9.02
2023-04-18T13:45:32.846Z,9.23
2023-04-18T13:48:54.640Z,9.30
2023-04-18T13:52:17.551Z,9.02
2023-04-18T13:55:40.307Z,9.05
2023-04-18T13:59:02.510Z,8.48
2023-04-18T14:02:24.354Z,8.32
2023-04-18T14:05:45.849Z,7.30
2023-04-18T14:09:07.972Z,6.90
2023-04-18T14:12:31.343Z,6.82
2023-04-18T14:15:53.884Z,6.50
2023-04-18T14:19:16.108Z,5.97
2023-04-18T14:22:37.787Z,6.13
2023-04-18T14:25:59.257Z,6.55
2023-04-18T14:29:22.575Z,6.50
2023-04-18T14:32:44.291Z,5.88
2023-04-18T14:36:07.055Z,5.38
2023-04-18T14:39:28.970Z,5.70
2023-04-18T14:42:50.463Z,5.53
2023-04-18T14:46:14.228Z,5.03
2023-04-18T14:49:35.877Z,4.95
2023-04-18T14:52:57.803Z,5.13
2023-04-18T14:56:21.257Z,4.57
2023-04-18T14:59:43.232Z,4.75
2023-04-18T15:03:08.932Z,4.72
2023-04-18T15:06:32.606Z,4.75
2023-04-18T15:09:54.475Z,4.63
2023-04-18T15:13:15.907Z,4.18
2023-04-18T15:16:39.935Z,4.15
2023-04-18T15:20:07.041Z,4.22
2023-04-18T15:23:28.882Z,4.32
2023-04-18T15:26:50.733Z,3.70
2023-04-18T15:30:13.347Z,4.25
2023-04-18T15:33:34.843Z,3.90
2023-04-18T15:36:58.160Z,3.83
2023-04-18T15:40:20.170Z,3.97
2023-04-18T15:43:42.390Z,4.15
2023-04-18T15:47:04.722Z,3.70
2023-04-18T15:50:26.777Z,4.15
2023-04-18T15:53:50.189Z,4.28
2023-04-18T15:57:12.061Z,4.70
2023-04-18T16:00:33.658Z,4.60
2023-04-18T16:03:55.782Z,4.25
2023-04-18T16:07:17.805Z,4.47
2023-04-18T16:10:41.514Z,4.53
2023-04-18T16:14:03.685Z,4.60
2023-04-18T16:17:25.803Z,4.88
2023-04-18T16:20:48.143Z,5.00
2023-04-18T16:24:10.094Z,4.75
2023-04-18T16:27:33.810Z,5.03
2023-04-18T16:30:55.979Z,4.28
2023-04-18T16:34:17.831Z,5.22
2023-04-18T16:37:40.106Z,4.88
2023-04-18T16:41:01.808Z,4.85
2023-04-18T16:44:25.309Z,4.65
2023-04-18T16:47:46.685Z,4.25
2023-04-18T16:51:08.502Z,4.82
2023-04-18T16:54:30.654Z,4.78
2023-04-18T16:57:52.666Z,4.35
2023-04-18T17:01:15.652Z,4.70
2023-04-18T17:04:37.526Z,4.95
2023-04-18T17:07:58.799Z,4.90
2023-04-18T17:11:20.819Z,4.90
2023-04-18T17:14:42.384Z,5.05
2023-04-18T17:18:06.340Z,5.15
2023-04-18T17:21:27.732Z,5.03
2023-04-18T17:24:49.263Z,4.70
2023-04-18T17:28:11.771Z,4.72
2023-04-18T17:31:34.409Z,4.82
2023-04-18T17:34:57.683Z,4.40
2023-04-18T17:38:19.548Z,4.72
2023-04-18T17:41:41.128Z,5.20
2023-04-18T17:45:02.841Z,4.70
2023-04-18T17:48:24.873Z,4.38
2023-04-18T17:51:48.297Z,4.90
2023-04-18T17:55:10.576Z,4.35
2023-04-18T17:58:32.078Z,4.72
2023-04-18T18:01:53.893Z,4.72
2023-04-18T18:05:16.579Z,4.57
2023-04-18T18:08:40.538Z,4.82
2023-04-18T18:12:02.558Z,4.85
2023-04-18T18:15:24.710Z,4.82
2023-04-18T18:18:46.533Z,4.68
2023-04-18T18:22:08.541Z,4.47
2023-04-18T18:25:32.174Z,5.07
2023-04-18T18:28:54.715Z,4.80
2023-04-18T18:32:16.790Z,4.40
2023-04-18T18:35:38.437Z,4.60
2023-04-18T18:39:00.070Z,5.03
2023-04-18T18:42:22.951Z,4.88
2023-04-18T18:45:44.718Z,5.03
2023-04-18T18:49:06.210Z,4.93
2023-04-18T18:52:29.772Z,4.75
2023-04-18T18:55:51.458Z,5.50
2023-04-18T18:59:15.844Z,5.38
2023-04-18T19:02:38.114Z,5.28
2023-04-18T19:06:03.907Z,5.45
2023-04-18T19:09:25.702Z,5.28
2023-04-18T19:12:47.363Z,5.75
2023-04-18T19:16:10.506Z,5.45
2023-04-18T19:19:32.058Z,5.47
2023-04-18T19:22:53.899Z,6.07
2023-04-18T19:26:15.640Z,5.70
2023-04-18T19:29:37.553Z,5.50
2023-04-18T19:33:00.727Z,6.07
2023-04-18T19:36:22.702Z,5.90
2023-04-18T19:39:44.438Z,6.00
2023-04-18T19:43:06.481Z,5.70
2023-04-18T19:46:28.400Z,5.70
2023-04-18T19:49:51.723Z,6.03
2023-04-18T19:53:15.516Z,6.00
2023-04-18T19:56:37.852Z,6.33
2023-04-18T19:59:59.838Z,6.30
2023-04-18T20:03:21.942Z,5.70
2023-04-18T20:06:45.268Z,5.60
2023-04-18T20:10:08.891Z,5.77
2023-04-18T20:13:30.929Z,5.90
2023-04-18T20:16:52.447Z,6.00
2023-04-18T20:20:14.223Z,6.13
2023-04-18T20:23:37.667Z,6.07
2023-04-18T20:27:00.602Z,6.20
2023-04-18T20:30:22.647Z,6.30
2023-04-18T20:33:44.694Z,6.57
2023-04-18T20:37:07.565Z,5.57
2023-04-18T20:40:31.025Z,6.43
2023-04-18T20:43:53.722Z,5.80
2023-04-18T20:47:16.098Z,6.33
2023-04-18T20:50:40.009Z,5.53
2023-04-18T20:54:01.618Z,6.00
2023-04-18T20:57:24.770Z,6.10
2023-04-18T21:00:46.687Z,6.27
2023-04-18T21:04:09.569Z,6.13
2023-04-18T21:07:32.127Z,5.60
2023-04-18T21:10:54.047Z,5.33
2023-04-18T21:14:17.656Z,5.43
2023-04-18T21:17:39.336Z,5.17
2023-04-18T21:21:01.298Z,5.00
2023-04-18T21:24:22.812Z,5.00
2023-04-18T21:27:44.601Z,5.07
2023-04-18T21:31:08.196Z,4.63
2023-04-18T21:34:30.110Z,4.90
2023-04-18T21:37:52.094Z,4.57
2023-04-18T21:41:15.802Z,4.27
2023-04-18T21:44:37.969Z,4.37
2023-04-18T21:48:00.954Z,4.50
2023-04-18T21:51:22.440Z,4.37
2023-04-18T21:54:44.226Z,4.10
2023-04-18T21:58:06.264Z,4.30
2023-04-18T22:01:27.964Z,4.40
2023-04-18T22:04:51.067Z,4.30
2023-04-18T22:08:12.481Z,3.90
2023-04-18T22:11:33.904Z,3.90
2023-04-18T22:14:56.711Z,3.73
2023-04-18T22:18:19.728Z,4.47
2023-04-18T22:21:42.723Z,4.03
2023-04-18T22:25:04.994Z,4.57
2023-04-18T22:28:28.025Z,4.27
2023-04-18T22:31:49.988Z,4.67
2023-04-18T22:35:11.757Z,4.77
2023-04-18T22:38:35.551Z,5.23
2023-04-18T22:41:57.179Z,3.90
2023-04-18T22:45:19.578Z,3.90
2023-04-18T22:48:40.882Z,3.73
2023-04-18T22:52:02.595Z,4.37
2023-04-18T22:55:25.734Z,4.40
2023-04-18T22:58:47.291Z,3.93
2023-04-18T23:02:08.969Z,3.87
2023-04-18T23:05:31.492Z,4.30
2023-04-18T23:08:53.210Z,4.00
2023-04-18T23:12:18.394Z,3.50
2023-04-18T23:15:40.159Z,4.17
2023-04-18T23:19:01.942Z,3.77
2023-04-18T23:22:24.456Z,4.00
2023-04-18T23:25:46.207Z,3.67
2023-04-18T23:29:08.988Z,3.40
2023-04-18T23:32:30.584Z,3.97
2023-04-18T23:35:51.964Z,4.13
2023-04-18T23:39:13.467Z,3.80
2023-04-18T23:42:35.934Z,3.40
2023-04-18T23:45:59.116Z,3.50
2023-04-18T23:49:20.493Z,3.93
2023-04-18T23:52:42.394Z,3.50
2023-04-18T23:56:04.036Z,3.80
2023-04-18T23:59:25.779Z,3.57
